createdAt,value
2018-09-04T15:27:15.379Z,23.30
2018-09-04T15:38:12.227Z,30.60
2018-09-04T15:43:27.808Z,30.40
2018-09-04T15:48:48.740Z,30.30
2018-09-04T15:54:01.803Z,30.20
2018-09-04T15:59:24.940Z,30.30
2018-09-04T16:11:19.640Z,30.40
2018-09-04T16:16:31.078Z,30.50
2018-09-04T16:21:45.191Z,30.70
2018-09-04T16:26:57.474Z,30.80
2018-09-04T16:32:27.227Z,31.00
2018-09-04T16:37:54.045Z,31.10
2018-09-04T16:43:09.007Z,31.10
2018-09-04T16:48:17.678Z,31.10
2018-09-04T16:53:29.443Z,30.60
2018-09-04T16:58:39.878Z,30.10
2018-09-04T17:09:11.852Z,29.10
2018-09-04T17:14:23.584Z,28.70
2018-09-04T17:19:38.103Z,28.30
2018-09-04T17:24:56.645Z,28.00
2018-09-04T17:30:10.131Z,27.70
2018-09-04T17:35:25.670Z,27.50
2018-09-04T17:40:47.478Z,27.40
2018-09-04T17:45:57.163Z,27.10
2018-09-04T17:51:03.045Z,26.90
2018-09-04T17:56:18.295Z,26.80
2018-09-04T18:01:31.730Z,26.80
2018-09-04T18:06:46.317Z,26.70
2018-09-04T18:11:59.272Z,26.70
2018-09-04T18:17:14.398Z,26.70
2018-09-04T18:22:32.341Z,26.70
2018-09-04T18:27:46.749Z,26.60
2018-09-04T18:33:06.544Z,26.60
2018-09-04T18:43:51.957Z,26.50
2018-09-04T18:49:11.935Z,26.40
2018-09-04T18:54:35.524Z,26.40
2018-09-04T19:05:31.026Z,26.20
2018-09-04T19:21:47.680Z,26.10
2018-09-04T19:32:54.229Z,26.00
2018-09-04T19:38:34.830Z,25.90
